sim
Sign-in with your pilot id or email,
or register
Callsign
Passwort

Schedule Details

Flight Number: DLH2142 (2)
Departure: Munich Airport (EDDM) at 14:15
Arrival: Munster Osnabruck International -?Airport (EDDG) at 15:30
Route: Lufthansa Passenger Schedule. Enter filed route here before submitting Pirep.

Weather Information
Getting current METAR information for EDDM 221250Z 05004KT 010V140 9999 FEW038 24/14 Q1012 NOSIG
Getting current METAR information for EDDG 221250Z 25003KT 170V320 CAVOK 25/10 Q1009 NOSIG

Schedule Frequency

Route Map